Verdon, Nebraska
Current Conditions -  °F | °C
As of 6:53 AM on Saturday 20 Dec 2014 (Local Time) from KFNB Reporting Station
Overcast Overcast  
Wind Chill: 29°   Ceiling: 1200
Heat Index: 33°   Visibility: 9mi
Dew Point: 29°   Wind: 5mph
Humidity: 85%   Direction: 130°SE
Pressure: 30.12"   Gusts: NA
Location:  40.15°N, 95.71°W
Report Text: KFNB 201253Z AUTO 13004KT 9SM OVC012 01/M02 A3012 RMK AO2 SLP210 T00061017
Loading
Personal Weather Stations






























Interactive Weather Map New forecast layout! Learn more

10-Day Weather Forecast

Advertisements
Track Severe Weather on mobile